createdAt,value
2017-11-15T00:00:53.809Z,0
2017-11-15T00:01:53.783Z,0
2017-11-15T00:02:53.822Z,0
2017-11-15T00:03:53.743Z,0
2017-11-15T00:04:53.729Z,0
2017-11-15T00:05:53.452Z,0
2017-11-15T00:06:53.719Z,0
2017-11-15T00:07:53.405Z,0
2017-11-15T00:08:53.654Z,0
2017-11-15T00:09:53.362Z,0
2017-11-15T00:10:53.628Z,0
2017-11-15T00:11:53.598Z,0
2017-11-15T00:12:53.853Z,0
2017-11-15T00:13:53.344Z,0
2017-11-15T00:14:53.274Z,0
2017-11-15T00:15:53.523Z,0
2017-11-15T00:16:53.510Z,0
2017-11-15T00:17:53.218Z,0
2017-11-15T00:18:53.203Z,0
2017-11-15T00:19:53.450Z,0
2017-11-15T00:20:53.166Z,0
2017-11-15T00:21:53.412Z,0
2017-11-15T00:22:53.397Z,0
2017-11-15T00:23:53.432Z,0
2017-11-15T00:24:53.088Z,0
2017-11-15T00:25:53.351Z,0
2017-11-15T00:26:53.336Z,0
2017-11-15T00:27:53.304Z,0
2017-11-15T00:28:53.550Z,0
2017-11-15T00:29:53.271Z,0
2017-11-15T00:30:53.248Z,0
2017-11-15T00:31:53.232Z,0
2017-11-15T00:32:53.211Z,0
2017-11-15T00:33:52.928Z,0
2017-11-15T00:34:53.172Z,0
2017-11-15T00:35:52.890Z,0
2017-11-15T00:36:53.407Z,0
2017-11-15T00:37:53.117Z,0
2017-11-15T00:38:52.614Z,0
2017-11-15T00:39:52.545Z,0
2017-11-15T00:40:53.340Z,0
2017-11-15T00:41:52.786Z,0
2017-11-15T00:42:53.048Z,0
2017-11-15T00:43:53.062Z,0
2017-11-15T00:44:52.991Z,0
2017-11-15T00:45:52.431Z,0
2017-11-15T00:46:52.682Z,0
2017-11-15T00:47:52.935Z,0
2017-11-15T00:48:52.647Z,0
2017-11-15T00:49:52.645Z,0
2017-11-15T00:50:52.877Z,0
2017-11-15T00:51:52.863Z,0
2017-11-15T00:52:52.838Z,0
2017-11-15T00:53:52.348Z,0
2017-11-15T00:54:52.813Z,0
2017-11-15T00:55:52.518Z,0
2017-11-15T00:56:52.496Z,0
2017-11-15T00:57:52.756Z,0
2017-11-15T00:58:52.471Z,0
2017-11-15T00:59:52.709Z,0
2017-11-15T01:00:52.705Z,0
2017-11-15T01:01:52.952Z,0
2017-11-15T01:02:52.660Z,0
2017-11-15T01:03:52.643Z,0
2017-11-15T01:04:52.637Z,0
2017-11-15T01:05:52.607Z,0
2017-11-15T01:06:52.599Z,0
2017-11-15T01:07:52.845Z,0
2017-11-15T01:08:52.613Z,0
2017-11-15T01:09:52.531Z,0
2017-11-15T01:10:51.976Z,0
2017-11-15T01:11:52.228Z,0
2017-11-15T01:12:52.207Z,0
2017-11-15T01:13:52.727Z,0
2017-11-15T01:14:51.901Z,0
2017-11-15T01:15:52.423Z,0
2017-11-15T01:16:52.400Z,0
2017-11-15T01:17:52.378Z,0
2017-11-15T01:18:52.689Z,0
2017-11-15T01:19:51.807Z,0
2017-11-15T01:20:52.598Z,0
2017-11-15T01:21:52.047Z,0
2017-11-15T01:22:52.572Z,0
2017-11-15T01:23:52.276Z,0
2017-11-15T01:24:52.250Z,0
2017-11-15T01:25:52.236Z,0
2017-11-15T01:26:51.683Z,0
2017-11-15T01:27:52.204Z,0
2017-11-15T01:28:52.185Z,0
2017-11-15T01:29:52.428Z,0
2017-11-15T01:30:51.876Z,0
2017-11-15T01:31:52.129Z,0
2017-11-15T01:32:52.104Z,0
2017-11-15T01:33:51.564Z,0
2017-11-15T01:34:52.112Z,0
2017-11-15T01:35:52.058Z,0
2017-11-15T01:36:52.033Z,0
2017-11-15T01:37:52.022Z,0
2017-11-15T01:38:52.260Z,0
2017-11-15T01:39:51.725Z,0
2017-11-15T01:40:52.243Z,0
2017-11-15T01:41:51.676Z,0
2017-11-15T01:42:52.193Z,0
2017-11-15T01:43:51.634Z,0
2017-11-15T01:44:51.660Z,0
2017-11-15T01:45:51.871Z,0
2017-11-15T01:46:51.849Z,0
2017-11-15T01:47:51.840Z,0
2017-11-15T01:48:51.548Z,0
2017-11-15T01:49:51.530Z,0
2017-11-15T01:50:51.502Z,0
2017-11-15T01:51:51.489Z,0
2017-11-15T01:52:51.468Z,0
2017-11-15T01:53:51.451Z,0
2017-11-15T01:54:51.432Z,0
2017-11-15T01:55:51.615Z,0
2017-11-15T01:56:51.400Z,0
2017-11-15T01:57:51.653Z,0
2017-11-15T01:58:51.630Z,0
2017-11-15T01:59:51.340Z,0
2017-11-15T02:00:51.869Z,0
2017-11-15T02:01:51.577Z,0
2017-11-15T02:02:51.294Z,0
2017-11-15T02:03:51.537Z,0
2017-11-15T02:04:51.859Z,0
2017-11-15T02:05:51.771Z,0
2017-11-15T02:06:51.492Z,0
2017-11-15T02:07:51.462Z,0
2017-11-15T02:08:51.719Z,0
2017-11-15T02:09:50.888Z,0
2017-11-15T02:10:51.132Z,0
2017-11-15T02:11:51.124Z,0
2017-11-15T02:12:51.650Z,0
2017-11-15T02:13:51.363Z,0
2017-11-15T02:14:51.333Z,0
2017-11-15T02:15:51.593Z,0
2017-11-15T02:16:51.564Z,0
2017-11-15T02:17:51.004Z,0
2017-11-15T02:18:50.720Z,0
2017-11-15T02:19:51.242Z,0
2017-11-15T02:20:51.225Z,0
2017-11-15T02:21:50.936Z,0
2017-11-15T02:22:50.922Z,0
2017-11-15T02:23:51.176Z,0
2017-11-15T02:24:50.608Z,0
2017-11-15T02:25:50.866Z,0
2017-11-15T02:26:50.844Z,0
2017-11-15T02:27:51.097Z,0
2017-11-15T02:28:50.805Z,0
2017-11-15T02:29:50.521Z,0
2017-11-15T02:30:50.771Z,0
2017-11-15T02:31:51.023Z,0
2017-11-15T02:32:50.746Z,0
2017-11-15T02:33:50.717Z,0
2017-11-15T02:34:51.236Z,0
2017-11-15T02:35:50.725Z,0
2017-11-15T02:36:50.664Z,0
2017-11-15T02:37:50.643Z,0
2017-11-15T02:38:50.629Z,0
2017-11-15T02:39:51.155Z,0
2017-11-15T02:40:50.850Z,0
2017-11-15T02:41:51.117Z,0
2017-11-15T02:42:50.841Z,0
2017-11-15T02:43:50.259Z,0
2017-11-15T02:44:50.513Z,0
2017-11-15T02:45:51.093Z,0
2017-11-15T02:46:50.773Z,0
2017-11-15T02:47:50.746Z,0
2017-11-15T02:48:50.744Z,0
2017-11-15T02:49:50.422Z,0
2017-11-15T02:50:50.675Z,0
2017-11-15T02:51:50.379Z,0
2017-11-15T02:52:50.365Z,0
2017-11-15T02:53:50.627Z,0
2017-11-15T02:54:50.601Z,0
2017-11-15T02:55:50.583Z,0
2017-11-15T02:56:50.842Z,0
2017-11-15T02:57:50.538Z,0
2017-11-15T02:58:50.800Z,0
2017-11-15T02:59:50.507Z,0
2017-11-15T03:00:50.227Z,0
2017-11-15T03:01:50.477Z,0
2017-11-15T03:02:50.449Z,0
2017-11-15T03:03:50.431Z,0
2017-11-15T03:04:50.409Z,0
2017-11-15T03:05:50.128Z,0
2017-11-15T03:06:50.377Z,0
2017-11-15T03:07:50.357Z,0
2017-11-15T03:08:50.608Z,0
2017-11-15T03:09:50.584Z,0
2017-11-15T03:10:50.302Z,0
2017-11-15T03:11:50.020Z,0
2017-11-15T03:12:49.991Z,0
2017-11-15T03:13:50.522Z,0
2017-11-15T03:14:49.962Z,0
2017-11-15T03:15:50.216Z,0
2017-11-15T03:16:49.921Z,0
2017-11-15T03:17:50.180Z,0
2017-11-15T03:18:49.882Z,0
2017-11-15T03:19:49.861Z,0
2017-11-15T03:20:49.576Z,0
2017-11-15T03:21:49.828Z,0
2017-11-15T03:22:50.082Z,0
2017-11-15T03:23:50.055Z,0
2017-11-15T03:24:50.312Z,0
2017-11-15T03:25:50.043Z,0
2017-11-15T03:26:50.058Z,0
2017-11-15T03:27:49.989Z,0
2017-11-15T03:28:49.964Z,0
2017-11-15T03:29:49.694Z,0
2017-11-15T03:30:49.943Z,0
2017-11-15T03:31:49.941Z,0
2017-11-15T03:32:49.914Z,0
2017-11-15T03:33:50.152Z,0
2017-11-15T03:34:49.595Z,0
2017-11-15T03:35:49.843Z,0
2017-11-15T03:36:50.087Z,0
2017-11-15T03:37:49.533Z,0
2017-11-15T03:38:49.785Z,0
2017-11-15T03:39:50.034Z,0
2017-11-15T03:40:49.491Z,0
2017-11-15T03:41:49.773Z,0
2017-11-15T03:42:49.709Z,0
2017-11-15T03:43:49.690Z,0
2017-11-15T03:44:49.403Z,0
2017-11-15T03:45:49.654Z,0
2017-11-15T03:46:49.640Z,0
2017-11-15T03:47:49.616Z,0
2017-11-15T03:48:49.597Z,0
2017-11-15T03:49:49.321Z,0
2017-11-15T03:50:49.024Z,0
2017-11-15T03:51:49.866Z,0
2017-11-15T03:52:49.524Z,0
2017-11-15T03:53:49.263Z,0
2017-11-15T03:54:49.753Z,0
2017-11-15T03:55:49.863Z,0
2017-11-15T03:56:49.181Z,0
2017-11-15T03:57:49.722Z,0
2017-11-15T03:58:49.144Z,0
2017-11-15T03:59:49.394Z,0
2017-11-15T04:00:49.385Z,0
2017-11-15T04:01:49.632Z,0
2017-11-15T04:02:49.333Z,0
2017-11-15T04:03:49.059Z,0
2017-11-15T04:04:49.031Z,0
2017-11-15T04:05:49.014Z,0
2017-11-15T04:06:49.601Z,0
2017-11-15T04:07:48.978Z,0
2017-11-15T04:08:49.240Z,0
2017-11-15T04:09:48.674Z,0
2017-11-15T04:10:48.925Z,0
2017-11-15T04:11:48.902Z,0
2017-11-15T04:12:49.151Z,0
2017-11-15T04:13:49.149Z,0
2017-11-15T04:14:49.383Z,0
2017-11-15T04:15:49.109Z,0
2017-11-15T04:16:49.085Z,0
2017-11-15T04:17:49.338Z,0
2017-11-15T04:18:49.054Z,0
2017-11-15T04:19:48.762Z,0
2017-11-15T04:20:48.743Z,0
2017-11-15T04:21:48.998Z,0
2017-11-15T04:22:49.248Z,0
2017-11-15T04:23:48.689Z,0
2017-11-15T04:24:49.199Z,0
2017-11-15T04:25:48.916Z,0
2017-11-15T04:26:48.357Z,0
2017-11-15T04:27:48.358Z,0
2017-11-15T04:28:48.880Z,0
2017-11-15T04:29:48.590Z,0
2017-11-15T04:30:48.290Z,0
2017-11-15T04:31:48.804Z,0
2017-11-15T04:32:48.535Z,0
2017-11-15T04:33:48.771Z,0
2017-11-15T04:34:48.210Z,0
2017-11-15T04:35:48.739Z,0
2017-11-15T04:36:48.738Z,0
2017-11-15T04:37:48.427Z,0
2017-11-15T04:38:48.696Z,0
2017-11-15T04:39:48.672Z,0
2017-11-15T04:40:48.650Z,0
2017-11-15T04:41:48.623Z,0
2017-11-15T04:42:48.604Z,0
2017-11-15T04:43:48.595Z,0
2017-11-15T04:44:48.565Z,0
2017-11-15T04:45:48.555Z,0
2017-11-15T04:46:48.274Z,0
2017-11-15T04:47:48.298Z,0
2017-11-15T04:48:48.494Z,0
2017-11-15T04:49:48.219Z,0
2017-11-15T04:50:48.468Z,0
2017-11-15T04:51:48.437Z,0
2017-11-15T04:52:48.140Z,0
2017-11-15T04:53:48.145Z,0
2017-11-15T04:54:48.402Z,0
2017-11-15T04:55:48.105Z,0
2017-11-15T04:56:48.608Z,0
2017-11-15T04:57:47.786Z,0
2017-11-15T04:58:48.319Z,0
2017-11-15T04:59:48.315Z,0
2017-11-15T05:00:48.271Z,0
2017-11-15T05:01:47.709Z,0
2017-11-15T05:02:48.284Z,0
2017-11-15T05:03:47.945Z,0
2017-11-15T05:04:47.924Z,0
2017-11-15T05:05:47.906Z,0
2017-11-15T05:06:48.431Z,0
2017-11-15T05:07:47.599Z,0
2017-11-15T05:08:48.401Z,0
2017-11-15T05:09:47.842Z,0
2017-11-15T05:10:47.814Z,0
2017-11-15T05:11:47.802Z,0
2017-11-15T05:12:48.371Z,0
2017-11-15T05:13:48.029Z,0
2017-11-15T05:14:48.213Z,0
2017-11-15T05:15:48.262Z,0
2017-11-15T05:16:47.973Z,0
2017-11-15T05:17:48.240Z,0
2017-11-15T05:18:47.937Z,0
2017-11-15T05:19:47.936Z,0
2017-11-15T05:20:47.896Z,0
2017-11-15T05:21:47.611Z,0
2017-11-15T05:22:47.594Z,0
2017-11-15T05:23:47.844Z,0
2017-11-15T05:24:47.553Z,0
2017-11-15T05:25:48.087Z,0
2017-11-15T05:26:47.247Z,0
2017-11-15T05:27:47.496Z,0
2017-11-15T05:28:47.764Z,0
2017-11-15T05:29:48.006Z,0
2017-11-15T05:30:47.444Z,0
2017-11-15T05:31:47.427Z,0
2017-11-15T05:32:47.404Z,0
2017-11-15T05:33:47.384Z,0
2017-11-15T05:34:47.641Z,0
2017-11-15T05:35:47.365Z,0
2017-11-15T05:36:47.337Z,0
2017-11-15T05:37:47.307Z,0
2017-11-15T05:38:47.293Z,0
2017-11-15T05:39:47.540Z,0
2017-11-15T05:40:47.539Z,0
2017-11-15T05:41:47.231Z,0
2017-11-15T05:42:47.495Z,0
2017-11-15T05:43:47.524Z,0
2017-11-15T05:44:47.182Z,0
2017-11-15T05:45:46.890Z,0
2017-11-15T05:46:47.415Z,0
2017-11-15T05:47:47.117Z,0
2017-11-15T05:48:47.637Z,0
2017-11-15T05:49:47.094Z,0
2017-11-15T05:50:47.358Z,0
2017-11-15T05:51:47.330Z,0
2017-11-15T05:52:47.298Z,0
2017-11-15T05:53:47.278Z,0
2017-11-15T05:54:46.989Z,0
2017-11-15T05:55:47.254Z,0
2017-11-15T05:56:47.159Z,0
2017-11-15T05:57:46.939Z,0
2017-11-15T05:58:46.970Z,0
2017-11-15T05:59:47.442Z,0
2017-11-15T06:00:47.149Z,0
2017-11-15T06:01:47.407Z,0
2017-11-15T06:02:46.845Z,0
2017-11-15T06:03:47.094Z,0
2017-11-15T06:04:47.345Z,0
2017-11-15T06:05:46.795Z,0
2017-11-15T06:06:46.768Z,0
2017-11-15T06:07:46.750Z,0
2017-11-15T06:08:47.002Z,0
2017-11-15T06:09:47.126Z,0
2017-11-15T06:10:46.517Z,0
2017-11-15T06:11:46.409Z,0
2017-11-15T06:12:47.049Z,0
2017-11-15T06:13:47.632Z,0
2017-11-15T06:14:47.403Z,0
2017-11-15T06:15:46.694Z,0
2017-11-15T06:16:47.498Z,0
2017-11-15T06:17:46.708Z,0
2017-11-15T06:18:46.559Z,0
2017-11-15T06:19:46.908Z,0
2017-11-15T06:20:46.953Z,0
2017-11-15T06:21:46.623Z,4
2017-11-15T06:22:46.892Z,4
2017-11-15T06:23:47.302Z,4
2017-11-15T06:24:46.619Z,0
2017-11-15T06:25:46.428Z,4
2017-11-15T06:26:46.883Z,4
2017-11-15T06:27:46.556Z,0
2017-11-15T06:28:46.892Z,4
2017-11-15T06:29:46.966Z,4
2017-11-15T06:30:46.563Z,4
2017-11-15T06:31:46.063Z,8
2017-11-15T06:32:46.279Z,8
2017-11-15T06:33:46.280Z,12
2017-11-15T06:34:47.156Z,12
2017-11-15T06:35:46.700Z,16
2017-11-15T06:36:46.542Z,20
2017-11-15T06:37:46.248Z,24
2017-11-15T06:38:46.439Z,28
2017-11-15T06:39:46.490Z,36
2017-11-15T06:40:46.422Z,40
2017-11-15T06:41:46.413Z,48
2017-11-15T06:42:46.642Z,48
2017-11-15T06:43:46.355Z,60
2017-11-15T06:44:46.110Z,68
2017-11-15T06:45:46.046Z,72
2017-11-15T06:46:46.027Z,72
2017-11-15T06:47:46.279Z,68
2017-11-15T06:48:45.985Z,64
2017-11-15T06:49:46.237Z,72
2017-11-15T06:50:45.964Z,84
2017-11-15T06:51:45.928Z,84
2017-11-15T06:52:46.183Z,88
2017-11-15T06:53:45.900Z,104
2017-11-15T06:54:46.418Z,104
2017-11-15T06:55:45.858Z,112
2017-11-15T06:56:46.112Z,116
2017-11-15T06:57:45.830Z,132
2017-11-15T06:58:45.798Z,144
2017-11-15T06:59:45.563Z,140
2017-11-15T07:00:45.765Z,144
2017-11-15T07:01:46.018Z,164
2017-11-15T07:02:46.266Z,172
2017-11-15T07:03:45.709Z,180
2017-11-15T07:04:45.962Z,200
2017-11-15T07:05:45.679Z,212
2017-11-15T07:06:45.658Z,220
2017-11-15T07:07:45.920Z,232
2017-11-15T07:08:45.618Z,256
2017-11-15T07:09:46.141Z,276
2017-11-15T07:10:45.854Z,292
2017-11-15T07:11:46.103Z,308
2017-11-15T07:12:45.835Z,328
2017-11-15T07:13:45.532Z,340
2017-11-15T07:14:45.514Z,356
2017-11-15T07:15:45.506Z,384
2017-11-15T07:16:46.013Z,404
2017-11-15T07:17:45.998Z,432
2017-11-15T07:18:45.704Z,448
2017-11-15T07:19:45.744Z,472
2017-11-15T07:20:45.130Z,496
2017-11-15T07:21:45.651Z,520
2017-11-15T07:22:45.907Z,540
2017-11-15T07:23:45.625Z,552
2017-11-15T07:24:45.057Z,560
2017-11-15T07:25:45.578Z,576
2017-11-15T07:26:45.558Z,584
2017-11-15T07:27:45.279Z,580
2017-11-15T07:28:45.797Z,572
2017-11-15T07:29:45.511Z,572
2017-11-15T07:30:45.758Z,588
2017-11-15T07:31:45.192Z,612
2017-11-15T07:32:45.716Z,620
2017-11-15T07:33:45.704Z,632
2017-11-15T07:34:45.417Z,636
2017-11-15T07:35:45.404Z,648
2017-11-15T07:36:45.378Z,672
2017-11-15T07:37:45.108Z,700
2017-11-15T07:38:45.340Z,712
2017-11-15T07:39:45.612Z,708
2017-11-15T07:40:45.032Z,672
2017-11-15T07:41:45.555Z,632
2017-11-15T07:42:45.544Z,640
2017-11-15T07:43:44.978Z,664
2017-11-15T07:44:44.692Z,704
2017-11-15T07:45:44.945Z,740
2017-11-15T07:46:45.195Z,740
2017-11-15T07:47:44.640Z,740
2017-11-15T07:48:45.159Z,764
2017-11-15T07:49:44.870Z,812
2017-11-15T07:50:44.913Z,868
2017-11-15T07:51:45.381Z,968
2017-11-15T07:52:45.090Z,1096
2017-11-15T07:53:45.085Z,1280
2017-11-15T07:54:45.337Z,1480
2017-11-15T07:55:45.311Z,1620
2017-11-15T07:56:45.482Z,1716
2017-11-15T07:57:44.460Z,1800
2017-11-15T07:58:45.254Z,1936
2017-11-15T07:59:44.964Z,1916
2017-11-15T08:00:44.941Z,1932
2017-11-15T08:01:44.929Z,1972
2017-11-15T08:02:44.914Z,1932
2017-11-15T08:03:44.894Z,2040
2017-11-15T08:04:44.603Z,2132
2017-11-15T08:05:44.902Z,2172
2017-11-15T08:06:44.844Z,2228
2017-11-15T08:07:44.819Z,2220
2017-11-15T08:08:45.076Z,2176
2017-11-15T08:09:45.060Z,2140
2017-11-15T08:10:45.044Z,2108
2017-11-15T08:11:44.748Z,2100
2017-11-15T08:12:45.004Z,2112
2017-11-15T08:13:44.442Z,2104
2017-11-15T08:14:44.966Z,2100
2017-11-15T08:15:44.423Z,2088
2017-11-15T08:16:44.949Z,2136
2017-11-15T08:17:44.643Z,2108
2017-11-15T08:18:44.404Z,2056
2017-11-15T08:19:44.640Z,2012
2017-11-15T08:20:44.910Z,1996
2017-11-15T08:21:44.571Z,2008
2017-11-15T08:22:44.825Z,1984
2017-11-15T08:23:44.285Z,1984
2017-11-15T08:24:44.246Z,1956
2017-11-15T08:25:44.509Z,1896
2017-11-15T08:26:44.481Z,1916
2017-11-15T08:27:44.194Z,1956
2017-11-15T08:28:44.720Z,2016
2017-11-15T08:29:44.165Z,2032
2017-11-15T08:30:44.192Z,1996
2017-11-15T08:31:44.125Z,1928
2017-11-15T08:32:44.107Z,1928
2017-11-15T08:33:44.091Z,1832
2017-11-15T08:34:44.073Z,1788
2017-11-15T08:35:44.380Z,1696
2017-11-15T08:36:44.036Z,1600
2017-11-15T08:37:44.019Z,1644
2017-11-15T08:38:44.548Z,1824
2017-11-15T08:39:44.280Z,1920
2017-11-15T08:40:44.240Z,1964
2017-11-15T08:41:44.230Z,2036
2017-11-15T08:42:43.930Z,2016
2017-11-15T08:43:43.921Z,1972
2017-11-15T08:44:43.897Z,2064
2017-11-15T08:45:44.150Z,2264
2017-11-15T08:46:44.407Z,2404
2017-11-15T08:47:43.846Z,2476
2017-11-15T08:48:44.377Z,2532
2017-11-15T08:49:44.087Z,2524
2017-11-15T08:50:44.068Z,2408
2017-11-15T08:51:44.048Z,2336
2017-11-15T08:52:43.487Z,2376
2017-11-15T08:53:44.288Z,2396
2017-11-15T08:54:43.722Z,2488
2017-11-15T08:55:43.707Z,2492
2017-11-15T08:56:44.237Z,2428
2017-11-15T08:57:43.406Z,2540
2017-11-15T08:58:43.657Z,2596
2017-11-15T08:59:43.912Z,2532
2017-11-15T09:00:43.890Z,2524
2017-11-15T09:01:44.211Z,2440
2017-11-15T09:02:44.131Z,2788
2017-11-15T09:03:44.117Z,3352
2017-11-15T09:04:43.822Z,3676
2017-11-15T09:05:43.806Z,3520
2017-11-15T09:06:43.514Z,3620
2017-11-15T09:07:44.063Z,3648
2017-11-15T09:08:44.025Z,3644
2017-11-15T09:09:43.471Z,3624
2017-11-15T09:10:43.446Z,3660
2017-11-15T09:11:43.701Z,3540
2017-11-15T09:12:43.688Z,3480
2017-11-15T09:13:43.129Z,3528
2017-11-15T09:14:43.651Z,3552
2017-11-15T09:15:43.638Z,3416
2017-11-15T09:16:43.622Z,3268
2017-11-15T09:17:43.060Z,3196
2017-11-15T09:18:43.875Z,3276
2017-11-15T09:19:43.026Z,3520
2017-11-15T09:20:43.541Z,3660
2017-11-15T09:21:42.993Z,3620
2017-11-15T09:22:43.512Z,3568
2017-11-15T09:23:43.225Z,3704
2017-11-15T09:24:43.214Z,4004
2017-11-15T09:25:43.474Z,4132
2017-11-15T09:26:43.229Z,4284
2017-11-15T09:27:43.431Z,4048
2017-11-15T09:28:43.153Z,3724
2017-11-15T09:29:43.124Z,3708
2017-11-15T09:30:42.851Z,3900
2017-11-15T09:31:43.093Z,4076
2017-11-15T09:32:43.357Z,4160
2017-11-15T09:33:43.064Z,3908
2017-11-15T09:34:43.588Z,3768
2017-11-15T09:35:43.021Z,3944
2017-11-15T09:36:43.016Z,3940
2017-11-15T09:37:43.276Z,3816
2017-11-15T09:38:42.983Z,3816
2017-11-15T09:39:42.687Z,3740
2017-11-15T09:40:43.495Z,3752
2017-11-15T09:41:43.248Z,3716
2017-11-15T09:42:42.915Z,3668
2017-11-15T09:43:43.171Z,3552
2017-11-15T09:44:43.159Z,3484
2017-11-15T09:45:43.139Z,3860
2017-11-15T09:46:43.167Z,3800
2017-11-15T09:47:43.371Z,3748
2017-11-15T09:48:42.807Z,3780
2017-11-15T09:49:43.065Z,3740
2017-11-15T09:50:43.313Z,3964
2017-11-15T09:51:43.026Z,3924
2017-11-15T09:52:42.744Z,4252
2017-11-15T09:53:43.001Z,4536
2017-11-15T09:54:42.976Z,4396
2017-11-15T09:55:42.966Z,4320
2017-11-15T09:56:43.418Z,4112
2017-11-15T09:57:42.942Z,4580
2017-11-15T09:58:42.916Z,4548
2017-11-15T09:59:43.183Z,4456
2017-11-15T10:00:42.616Z,4700
2017-11-15T10:01:42.917Z,4824
2017-11-15T10:02:43.117Z,4960
2017-11-15T10:03:43.165Z,4988
2017-11-15T10:04:42.557Z,4696
2017-11-15T10:05:42.263Z,4844
2017-11-15T10:06:42.513Z,4684
2017-11-15T10:07:42.784Z,4680
2017-11-15T10:08:42.485Z,4844
2017-11-15T10:09:42.194Z,4900
2017-11-15T10:10:42.181Z,4716
2017-11-15T10:11:42.761Z,4424
2017-11-15T10:12:42.695Z,4276
2017-11-15T10:13:42.405Z,4492
2017-11-15T10:14:42.664Z,4712
2017-11-15T10:15:42.102Z,4828
2017-11-15T10:16:42.948Z,4928
2017-11-15T10:17:42.337Z,5184
2017-11-15T10:18:42.591Z,5744
2017-11-15T10:19:42.037Z,6216
2017-11-15T10:20:42.562Z,6728
2017-11-15T10:21:42.868Z,7296
2017-11-15T10:22:42.254Z,8032
2017-11-15T10:23:42.780Z,8268
2017-11-15T10:24:42.224Z,7896
2017-11-15T10:25:42.483Z,7608
2017-11-15T10:26:42.209Z,7904
2017-11-15T10:27:42.181Z,8200
2017-11-15T10:28:42.164Z,7140
2017-11-15T10:29:42.695Z,5960
2017-11-15T10:30:42.427Z,6136
2017-11-15T10:31:42.399Z,6284
2017-11-15T10:32:42.366Z,6184
2017-11-15T10:33:42.095Z,5364
2017-11-15T10:34:42.063Z,4936
2017-11-15T10:35:42.591Z,4812
2017-11-15T10:36:42.035Z,4252
2017-11-15T10:37:42.287Z,4364
2017-11-15T10:38:42.273Z,4728
2017-11-15T10:39:42.534Z,4736
2017-11-15T10:40:42.518Z,4884
2017-11-15T10:41:42.498Z,4884
2017-11-15T10:42:41.954Z,4696
2017-11-15T10:43:42.196Z,4600
2017-11-15T10:44:42.461Z,4772
2017-11-15T10:45:41.899Z,5016
2017-11-15T10:46:42.147Z,5304
2017-11-15T10:47:42.138Z,5076
2017-11-15T10:48:42.387Z,4616
2017-11-15T10:49:41.840Z,4324
2017-11-15T10:50:42.108Z,4264
2017-11-15T10:51:42.359Z,4396
2017-11-15T10:52:42.326Z,4308
2017-11-15T10:53:42.320Z,3968
2017-11-15T10:54:42.026Z,4012
2017-11-15T10:55:41.742Z,3868
2017-11-15T10:56:42.259Z,3800
2017-11-15T10:57:42.027Z,3728
2017-11-15T10:58:41.984Z,4056
2017-11-15T10:59:41.945Z,4096
2017-11-15T11:00:41.656Z,4272
2017-11-15T11:01:41.916Z,4444
2017-11-15T11:02:41.919Z,4504
2017-11-15T11:03:41.347Z,4352
2017-11-15T11:04:41.871Z,4176
2017-11-15T11:05:42.114Z,4120
2017-11-15T11:06:41.838Z,4028
2017-11-15T11:07:41.830Z,4076
2017-11-15T11:08:41.549Z,4196
2017-11-15T11:09:41.789Z,4320
2017-11-15T11:10:41.771Z,4564
2017-11-15T11:11:41.484Z,4508
2017-11-15T11:12:42.064Z,4412
2017-11-15T11:13:41.463Z,4212
2017-11-15T11:14:41.436Z,4004
2017-11-15T11:15:41.989Z,3912
2017-11-15T11:16:41.681Z,3776
2017-11-15T11:17:41.662Z,3744
2017-11-15T11:18:41.641Z,3716
2017-11-15T11:19:41.907Z,3676
2017-11-15T11:20:41.614Z,3656
2017-11-15T11:21:41.873Z,3620
2017-11-15T11:22:41.362Z,3480
2017-11-15T11:23:41.301Z,3368
2017-11-15T11:24:41.293Z,3348
2017-11-15T11:25:41.271Z,3408
2017-11-15T11:26:41.829Z,3572
2017-11-15T11:27:40.961Z,3660
2017-11-15T11:28:41.216Z,3660
2017-11-15T11:29:41.745Z,3516
2017-11-15T11:30:41.460Z,3488
2017-11-15T11:31:41.171Z,3244
2017-11-15T11:32:41.432Z,3116
2017-11-15T11:33:41.694Z,3000
2017-11-15T11:34:41.140Z,2928
2017-11-15T11:35:41.109Z,2796
2017-11-15T11:36:41.364Z,2876
2017-11-15T11:37:41.365Z,2924
2017-11-15T11:38:41.336Z,2764
2017-11-15T11:39:41.315Z,2632
2017-11-15T11:40:41.299Z,2648
2017-11-15T11:41:41.290Z,2700
2017-11-15T11:42:41.265Z,2744
2017-11-15T11:43:41.255Z,2732
2017-11-15T11:44:41.236Z,2672
2017-11-15T11:45:41.229Z,2676
2017-11-15T11:46:40.661Z,2672
2017-11-15T11:47:41.182Z,2520
2017-11-15T11:48:40.629Z,2404
2017-11-15T11:49:41.181Z,2336
2017-11-15T11:50:41.418Z,2348
2017-11-15T11:51:41.126Z,2408
2017-11-15T11:52:41.388Z,2340
2017-11-15T11:53:41.360Z,2128
2017-11-15T11:54:40.798Z,2100
2017-11-15T11:55:40.791Z,2172
2017-11-15T11:56:40.976Z,2248
2017-11-15T11:57:40.762Z,2276
2017-11-15T11:58:41.007Z,2280
2017-11-15T11:59:40.722Z,2132
2017-11-15T12:00:41.300Z,1936
2017-11-15T12:01:40.719Z,1740
2017-11-15T12:02:40.674Z,1644
2017-11-15T12:03:40.930Z,1664
2017-11-15T12:04:40.647Z,1840
2017-11-15T12:05:40.630Z,2116
2017-11-15T12:06:40.345Z,2324
2017-11-15T12:07:40.873Z,2436
2017-11-15T12:08:40.862Z,2432
2017-11-15T12:09:40.835Z,2292
2017-11-15T12:10:40.545Z,2112
2017-11-15T12:11:40.809Z,1956
2017-11-15T12:12:40.799Z,1820
2017-11-15T12:13:40.496Z,1908
2017-11-15T12:14:41.016Z,1964
2017-11-15T12:15:40.742Z,1864
2017-11-15T12:16:40.721Z,1788
2017-11-15T12:17:40.434Z,1764
2017-11-15T12:18:40.466Z,1692
2017-11-15T12:19:40.406Z,1604
2017-11-15T12:20:40.660Z,1580
2017-11-15T12:21:40.649Z,1572
2017-11-15T12:22:40.620Z,1504
2017-11-15T12:23:40.336Z,1468
2017-11-15T12:24:40.875Z,1488
2017-11-15T12:25:40.347Z,1616
2017-11-15T12:26:40.292Z,1748
2017-11-15T12:27:40.545Z,1852
2017-11-15T12:28:40.804Z,1864
2017-11-15T12:29:40.516Z,1800
2017-11-15T12:30:40.760Z,1676
2017-11-15T12:31:40.201Z,1572
2017-11-15T12:32:40.727Z,1616
2017-11-15T12:33:40.460Z,1716
2017-11-15T12:34:40.158Z,1744
2017-11-15T12:35:40.697Z,1672
2017-11-15T12:36:40.128Z,1656
2017-11-15T12:37:39.841Z,1676
2017-11-15T12:38:40.367Z,1648
2017-11-15T12:39:40.087Z,1692
2017-11-15T12:40:40.059Z,1672
2017-11-15T12:41:40.587Z,1712
2017-11-15T12:42:40.594Z,1720
2017-11-15T12:43:40.284Z,1692
2017-11-15T12:44:40.259Z,1688
2017-11-15T12:45:40.250Z,1700
2017-11-15T12:46:39.955Z,1708
2017-11-15T12:47:40.213Z,1720
2017-11-15T12:48:39.981Z,1776
2017-11-15T12:49:40.454Z,1836
2017-11-15T12:50:39.898Z,1848
2017-11-15T12:51:40.147Z,1960
2017-11-15T12:52:40.409Z,2000
2017-11-15T12:53:39.844Z,1904
2017-11-15T12:54:40.109Z,1848
2017-11-15T12:55:40.354Z,1880
2017-11-15T12:56:40.073Z,1944
2017-11-15T12:57:40.064Z,1904
2017-11-15T12:58:39.544Z,1800
2017-11-15T12:59:39.476Z,1808
2017-11-15T13:00:40.008Z,1844
2017-11-15T13:01:39.718Z,1840
2017-11-15T13:02:39.966Z,1920
2017-11-15T13:03:40.230Z,2016
2017-11-15T13:04:39.930Z,1964
2017-11-15T13:05:40.190Z,2016
2017-11-15T13:06:39.363Z,2088
2017-11-15T13:07:39.623Z,2168
2017-11-15T13:08:39.381Z,2128
2017-11-15T13:09:39.864Z,1980
2017-11-15T13:10:40.108Z,1748
2017-11-15T13:11:39.826Z,1572
2017-11-15T13:12:39.802Z,1452
2017-11-15T13:13:39.797Z,1424
2017-11-15T13:14:39.522Z,1436
2017-11-15T13:15:39.488Z,1424
2017-11-15T13:16:39.740Z,1360
2017-11-15T13:17:39.742Z,1300
2017-11-15T13:18:39.707Z,1260
2017-11-15T13:19:40.004Z,1196
2017-11-15T13:20:39.406Z,1180
2017-11-15T13:21:39.932Z,1164
2017-11-15T13:22:39.641Z,1160
2017-11-15T13:23:39.646Z,1164
2017-11-15T13:24:39.612Z,1112
2017-11-15T13:25:39.600Z,1084
2017-11-15T13:26:39.592Z,1072
2017-11-15T13:27:39.016Z,1080
2017-11-15T13:28:39.547Z,1112
2017-11-15T13:29:39.253Z,1108
2017-11-15T13:30:38.971Z,1104
2017-11-15T13:31:39.502Z,1080
2017-11-15T13:32:39.479Z,1036
2017-11-15T13:33:38.918Z,1044
2017-11-15T13:34:39.443Z,1036
2017-11-15T13:35:39.165Z,1040
2017-11-15T13:36:39.147Z,1044
2017-11-15T13:37:39.120Z,1084
2017-11-15T13:38:39.387Z,1120
2017-11-15T13:39:39.157Z,1172
2017-11-15T13:40:39.071Z,1268
2017-11-15T13:41:39.345Z,1308
2017-11-15T13:42:39.585Z,1320
2017-11-15T13:43:39.577Z,1328
2017-11-15T13:44:39.276Z,1340
2017-11-15T13:45:39.001Z,1404
2017-11-15T13:46:39.535Z,1432
2017-11-15T13:47:39.519Z,1412
2017-11-15T13:48:39.482Z,1380
2017-11-15T13:49:39.264Z,1376
2017-11-15T13:50:38.907Z,1372
2017-11-15T13:51:39.157Z,1312
2017-11-15T13:52:38.606Z,1276
2017-11-15T13:53:39.137Z,1300
2017-11-15T13:54:38.621Z,1292
2017-11-15T13:55:39.092Z,1276
2017-11-15T13:56:39.005Z,1284
2017-11-15T13:57:39.073Z,1288
2017-11-15T13:58:38.779Z,1236
2017-11-15T13:59:38.807Z,1184
2017-11-15T14:00:39.013Z,1108
2017-11-15T14:01:38.726Z,1016